Felipe Pacheco

Scout - Grêmio
22 Feb 2028
Tuesday
Process

Personality

Adaptability (20) Ambition (2) Controversy (10) Loyalty (12) Pressure (15) Professionalism (19) Sportsmanship (14) Temperament (11)

Profile

Coaching Style Democratic
License National A
Determination 13
Man Management 8
Motivating 11
Discipline 9
Job Satisfaction
100%
Fatigue
0%
Role Scout
Wage 109.3K p/w
Contract 14.03.2030

Performance

Behaviour Good
Training Effectiveness
65%
Player Development
35%
Injury Prevention
40%
Tactical Implementation
70%

Recent Events

Attended a recruitment meeting now
Recommended a transfer target now
Attended a recruitment meeting 7d ago
Recommended a transfer target 7d ago
Recommended a transfer target 7d ago
Recommended a transfer target 7d ago
Assessed a player 7d ago
Assessed a player 7d ago

Currently Monitoring

198
Player Club Status Ability Confidence Watched Last Observed Latest Vote
Ayden Heaven Luton Town Active 146 / 151 40% 4 17.02.2028 -
Josh Nichols Tranmere Rovers Active 120 / 127 40% 4 17.02.2028 -
Martim Cunha Porto Active 108 / 109 40% 5 17.02.2028 -
Jake Evans Colchester United Active 111 / 119 40% 3 17.02.2028 -
Darío Espínola Pribram Active 92 / 102 40% 1 17.02.2028 -
Darlvin Yeboah Bechem United Active 90 / 96 40% 1 17.02.2028 -
Karem Zoabi Torreense Active 112 / 116 40% 1 14.02.2028 -
Themba Dala Ajax Cape Town Active 127 / 125 40% 1 14.02.2028 -
Dmitry Pestryakov Dinamo Moscow Active 118 / 121 40% 3 12.02.2028 -
Esquerdinha Shrewsbury Town Active 119 / 125 40% 1 12.02.2028 -
Joel McGregor Swindon Town Active 99 / 105 40% 1 12.02.2028 -
Daniel Banjaqui Benfica Active 121 / 123 40% 3 11.02.2028 -
Jofre Torrents Ajax Active 132 / 140 40% 1 11.02.2028 -
Seymour Reid New York City Active 96 / 102 40% 1 08.02.2028 -
Keagan Mokoena Bidvest Wits Active 96 / 99 40% 1 08.02.2028 -
Christos Mouzakitis Hull City Active 137 / 139 40% 2 19.01.2028 -
Luis Otávio Colorado Rapids Active 112 / 119 40% 2 19.01.2028 -
Ronan Kpakio Cardiff City Active 122 / 126 40% 2 19.01.2028 -
Archie Gray Derby County Active 151 / 156 40% 2 13.01.2028 -
Josh King Chelsea Active 145 / 148 40% 1 13.01.2028 -
Jhon Durán Al-Nassr Active 145 / 146 40% 1 10.01.2028 -
Lucas Villalba Botafogo Active 132 / 128 40% 1 10.01.2028 -
Alan Velasco Boca Juniors Active 133 / 134 40% 1 10.01.2028 -
Arthur Cabral Botafogo Active 132 / 127 40% 1 08.01.2028 -
Yeferson Soteldo Bahia Active 131 / 126 40% 1 08.01.2028 -
Wessam Abou Ali Columbus Crew Active 132 / 133 40% 1 08.01.2028 -
Leonardo Campana New England Revolution Active 131 / 126 40% 1 07.01.2028 -
Isidro Pitta Bragantino Active 130 / 129 40% 1 07.01.2028 -
Myles Lewis-Skelly Birmingham Active 154 / 159 40% 2 06.01.2028 -
Daniel Costa Sporting CP Active 101 / 108 40% 2 05.01.2028 -
Assane Diao Lazio Active 152 / 153 40% 1 04.01.2028 -
Alexis Cuello San Lorenzo Active 129 / 123 40% 1 04.01.2028 -
Lucas Moura Sport Recife Report Ready 132 / 136 95% 1 07.12.2027 Approve
Eric Ramires Bragantino Shortlisted 128 / 130 95% 1 03.12.2027 Approve
Marvelous Freedom Ikorodu City Active 91 / 96 40% 5 01.12.2027 -
Willian José Bahia Active 120 / 118 95% 1 01.12.2027 Approve
Bahia Criciuma Active 114 / 123 40% 2 23.11.2027 -
Figueiredo Sampaio Correa Active 93 / 96 40% 2 21.11.2027 -
Gonçalo Oliveira Benfica Active 117 / 122 40% 2 17.11.2027 -
Caleb Yirenkyi Coventry City Active 141 / 143 40% 1 17.11.2027 -
Joel Ezra Enyimba Active 94 / 100 40% 2 15.11.2027 -
Hervin Goyes Deportivo Pasto Active 107 / 111 40% 1 15.11.2027 -
Ignacio Fernández Boston River Active 92 / 100 40% 4 13.11.2027 -
João Teixeira Porto Active 114 / 126 40% 2 13.11.2027 -
Julián Bazán Philadelphia Union Active 113 / 117 40% 1 13.11.2027 -
Eduardo Felicíssimo Sporting CP Active 119 / 130 40% 4 09.11.2027 -
Giovanni Leoni Bradford City Active 139 / 146 40% 2 09.11.2027 -
Tiago Freitas Benfica Active 117 / 127 40% 2 06.11.2027 -
Ricky Atletico Venezuela Active 97 / 103 40% 2 05.11.2027 -
Tyson Pearce St. Louis CITY SC Active 93 / 96 40% 1 01.11.2027 -
Mauro Carrizo Atlético Tucumán Active 102 / 107 40% 1 26.10.2027 -
Jens Hjertø-Dahl Hull City Active 127 / 131 40% 1 20.10.2027 -
Brooke Norton-Cuffy Inter Miami CF Active 138 / 140 40% 2 07.09.2027 -
Juan Manuel Sanabria Real Salt Lake Active 128 / 125 40% 1 07.09.2027 -
Japhet Sery Larsen Philadelphia Union Active 127 / 123 40% 1 07.09.2027 -
Matheus Bidu Corinthians Active 129 / 126 40% 3 04.09.2027 -
Mateo Mendoza Godoy Cruz Active 128 / 127 40% 2 04.09.2027 -
Alhassan Yusuf New England Revolution Active 128 / 126 40% 2 31.08.2027 -
Steven Alzate Atlanta United FC Active 128 / 130 40% 1 31.08.2027 -
Renato Tapia Al Wasl Active 139 / 142 40% 1 24.08.2027 -
Álvaro Carrillo APOEL Active 128 / 127 40% 1 24.08.2027 -
Guilherme Arana Fluminense Active 136 / 136 40% 1 21.08.2027 -
Keven Schlotterbeck FC Augsburg Active 142 / 140 40% 1 21.08.2027 -
Curtis Jones Inter Active 162 / 164 40% 8 15.08.2027 -
Fikayo Tomori AC Milan Active 155 / 158 40% 1 15.08.2027 -
Alessio Romagnoli Lazio Active 151 / 148 40% 1 12.08.2027 -
Adrià Altimira Deportivo La Coruña Active 138 / 131 40% 1 12.08.2027 -
Oumar Solet Udinese Active 152 / 152 40% 1 11.08.2027 -
Adam Wharton Crystal Palace Active 157 / 159 40% 1 09.08.2027 -
Dara O'Shea Ipswich Town Active 141 / 141 40% 2 07.08.2027 -
Tyler Adams Bournemouth Active 158 / 157 40% 3 07.08.2027 -
Sven Botman Newcastle United Active 163 / 166 40% 2 07.08.2027 -
Ethan Galbraith Swansea City Active 138 / 131 40% 3 06.08.2027 -
Mats Wieffer Brighton Active 152 / 153 40% 1 06.08.2027 -
Saša Lukić Ipswich Town Active 146 / 140 40% 2 04.08.2027 -
Callum Brittain Middlesbrough Active 135 / 132 40% 4 04.08.2027 -
Toby Collyer West Bromwich Albion Active 137 / 144 40% 1 04.08.2027 -
Ryan Sessegnon Fulham Active 149 / 152 40% 4 19.07.2027 -
Florentino Luís Ipswich Town Active 142 / 139 40% 2 30.05.2027 -
Morgan Whittaker Middlesbrough Active 133 / 131 40% 6 28.05.2027 -
Kevin Fulham Active 151 / 145 40% 3 28.05.2027 -
Scott Twine Bristol City Active 127 / 128 40% 1 28.05.2027 -
Marco Asensio Fenerbahce Active 158 / 149 40% 3 26.05.2027 Monitor
Francisco Conceição Juventus Active 160 / 158 40% 2 26.05.2027 -
Georginio Rutter Brighton Active 149 / 154 40% 2 26.05.2027 -
Jack Rudoni Coventry City Active 136 / 128 40% 3 24.05.2027 -
Giacomo Raspadori Atalanta Active 149 / 148 40% 6 24.05.2027 -
Jacob Ramsey Newcastle United Active 153 / 148 40% 2 24.05.2027 -
Amadou Onana Aston Villa Active 156 / 159 40% 2 21.05.2027 -
Hector Ramirez Newcastle United Active 153 / 156 40% 1 21.05.2027 -
Adrien Truffert Bournemouth Active 150 / 154 40% 2 19.05.2027 -
Andrey Oeste Active 103 / 103 30% 1 / 1m 19.05.2027 -
Wellerson Sampaio Correa Active 101 / 101 30% 1 / 1m 19.05.2027 -
Dango Ouattara Brentford Active 148 / 140 40% 4 18.05.2027 -
Xavi Simons Tottenham Active 159 / 159 40% 4 17.05.2027 -
Callum Hudson-Odoi Nottingham Forest Active 152 / 149 40% 1 16.05.2027 -
Yehor Yarmoliuk Brentford Active 148 / 154 40% 2 15.05.2027 -
Kenny Tete Fulham Active 143 / 139 40% 1 15.05.2027 -
Kenan Yıldız Juventus Active 163 / 163 40% 1 10.05.2027 -
Matías Soulé AS Roma Lost 157 / 159 40% 1 10.05.2027 -
Quinten Timber Crystal Palace Active 151 / 147 40% 1 09.05.2027 -
Léo Scienza Southampton Active 139 / 136 40% 1 08.05.2027 -
Derry Murkin Derby County Active 127 / 126 40% 2 07.05.2027 -
Nordi Mukiele Sunderland Active 145 / 146 40% 1 07.05.2027 -
Tom Fellows Southampton Active 134 / 129 40% 11 06.05.2027 -
Finn Azaz Southampton Active 130 / 122 40% 4 04.05.2027 -
Harry Wilson Leeds United Active 144 / 138 40% 1 04.05.2027 -
Mikkel Damsgaard Brentford Active 147 / 144 40% 2 03.05.2027 -
Carlos Vicente Birmingham Active 145 / 140 40% 2 02.05.2027 -
Othmane Maamma Watford Active 126 / 134 40% 1 01.05.2027 -
Jan Paul van Hecke Tottenham Active 159 / 160 40% 1 30.04.2027 -
Anton Stach Leeds United Active 150 / 148 40% 2 29.04.2027 -
Kiernan Dewsbury-Hall Everton Active 153 / 148 40% 1 29.04.2027 -
Welington Southampton Active 133 / 129 40% 1 29.04.2027 -
Nico González Newcastle United Active 162 / 156 40% 2 28.04.2027 -
Mario Dorgeles Braga Active 136 / 133 40% 9 25.04.2027 -
Pau Víctor AVS Active 141 / 137 40% 5 25.04.2027 -
Ricardo Horta Braga Active 151 / 145 40% 5 25.04.2027 -
William Gomes Porto Active 142 / 151 40% 4 24.04.2027 -
Renato Sanches AVS Active 132 / 130 40% 2 22.04.2027 -
Víctor Gómez Braga Active 142 / 137 40% 8 20.04.2027 -
Samu Vitoria Guimaraes Active 130 / 124 40% 4 15.04.2027 -
Diego Lainez Tigres Active 132 / 131 40% 5 13.04.2027 -
Iván Fresneda Sporting CP Active 142 / 147 40% 6 12.04.2027 -
Luís Guilherme Sporting CP Active 130 / 134 40% 2 12.04.2027 -
Ozziel Herrera Tigres Active 131 / 132 40% 5 12.04.2027 -
Francisco Moura Lusitânia Lourosa Active 141 / 139 40% 9 11.04.2027 -
Shea Charles Southampton Active 135 / 141 40% 2 11.04.2027 -
Kyle Walker-Peters West Ham United Active 137 / 140 40% 1 10.04.2027 -
Lee Hyun-Ju Arouca Active 123 / 117 40% 7 09.04.2027 -
Alejandro Zendejas Club America Active 142 / 143 40% 2 09.04.2027 -
Gianluca Prestianni Benfica Active 136 / 143 40% 3 09.04.2027 -
Telmo Arcanjo Vitoria Guimaraes Active 125 / 120 40% 1 09.04.2027 -
Alfonso Trezza Arouca Active 124 / 125 40% 1 08.04.2027 -
Gabri Martínez Braga Active 130 / 137 40% 6 04.04.2027 -
Luis Quintero Torreense Active 125 / 124 40% 4 04.04.2027 -
Jesús Ricardo Angulo Toluca Active 135 / 128 40% 8 02.04.2027 -
Fredrik Aursnes Benfica Active 151 / 150 40% 1 31.03.2027 -
Pepê Porto Active 147 / 138 40% 3 28.03.2027 -
Luís Esteves Atlas Active 130 / 131 40% 4 28.03.2027 -
Isaiah Jones Luton Town Active 126 / 126 40% 1 28.03.2027 -
Valery Académico de Viseu Active 126 / 121 40% 1 28.03.2027 -
Nuno Santos Sporting CP Active 139 / 133 40% 5 24.03.2027 -
Víctor Dávila Club America Active 129 / 129 40% 2 24.03.2027 -
Paulo Moreira Farense Active 125 / 124 40% 2 22.03.2027 -
Bosun Lawal Stoke City Active 129 / 125 40% 1 22.03.2027 -
Alan Varela Porto Active 145 / 146 40% 6 19.03.2027 -
Alberto Costa Porto Active 144 / 139 40% 14 18.03.2027 -
Gabriel Veron Porto Active 128 / 129 40% 1 18.03.2027 -
Soungoutou Magassa West Ham United Active 133 / 138 40% 1 14.03.2027 -
Lewis Ferguson Bologna Active 145 / 141 40% 1 14.03.2027 -
Erick Sánchez OGC Nice Active 142 / 145 40% 2 13.03.2027 -
Agustín Palavecino Cruz Azul Active 139 / 134 40% 1 09.03.2027 -
André Silva Tondela Active 129 / 122 40% 4 08.03.2027 -
Gonçalo Inácio Sporting CP Active 147 / 148 40% 6 07.03.2027 -
Gustaf Lagerbielke Braga Active 137 / 138 40% 2 07.03.2027 -
Aidan Morris Middlesbrough Active 132 / 126 40% 1 07.03.2027 -
Rodrigo Pinheiro Famalicao Active 127 / 132 40% 6 03.03.2027 -
Santi García Gil Vicente Active 132 / 135 40% 9 03.03.2027 -
João Palhinha Benfica Active 150 / 151 40% 2 01.03.2027 -
Derensili Sanches Fernandes Huddersfield Town Active 125 / 127 40% 2 26.02.2027 -
Callum Doyle Wrexham Active 130 / 131 40% 1 23.02.2027 -
Félix Lemaréchal Club Brugge Active 137 / 132 40% 2 21.02.2027 -
Gustavo Silva Vitoria Guimaraes Active 125 / 118 40% 1 21.02.2027 -
Heorhii Sudakov Benfica Active 147 / 142 40% 4 20.02.2027 -
Brian Rodríguez Club America Active 130 / 130 40% 1 11.02.2027 -
Lewis Morgan SuperSport United Active 127 / 121 40% 2 07.02.2027 -
Christian Krasnodar Active 137 / 128 40% 1 06.02.2027 -
Samuel Lino Flamengo Active 140 / 142 40% 4 04.02.2027 -
Dodi Lukébakio Benfica Active 146 / 141 40% 1 03.02.2027 -
Jordan Holsgrove Estoril Praia Active 127 / 136 40% 2 25.01.2027 -
Rafik Guitane Estoril Praia Active 129 / 136 40% 2 25.01.2027 -
João Simões Sporting CP Active 127 / 138 40% 1 20.01.2027 -
Figueiredo Alverca Active 125 / 133 40% 3 19.01.2027 -
Henry Mosquera Bragantino Active 133 / 125 40% 2 15.01.2027 -
Bright Arrey-Mbi Braga Active 131 / 130 40% 1 29.11.2026 -
Matheuzinho Corinthians Active 129 / 127 40% 2 24.11.2026 -
Sergi Altimira Sporting CP Active 140 / 138 40% 3 22.11.2026 -
Tomás Araújo Benfica Active 149 / 149 40% 1 19.11.2026 -
Lucas Piton Vasco da Gama Active 129 / 125 40% 3 16.11.2026 -
Mathias De Amorim Famalicao Active 128 / 131 40% 1 16.11.2026 -
Zeno Debast Sporting CP Active 145 / 141 40% 3 15.11.2026 -
Lukáš Červ Viktoria Plzen Active 132 / 136 40% 1 14.11.2026 -
Victor Froholdt Porto Active 147 / 164 40% 1 07.11.2026 -
Adalberto Carrasquilla Pumas UNAM Active 128 / 124 40% 2 01.11.2026 -
Vitinho Botafogo Active 130 / 133 40% 1 28.10.2026 -
Leandro Lozano Boca Juniors Active 127 / 127 40% 1 28.10.2026 -
Caio Alexandre Bahia Active 134 / 135 40% 3 15.10.2026 -
Dinis Pinto Moreirense Active 128 / 124 40% 3 15.10.2026 -
Facundo Mura Inter Miami CF Active 127 / 126 40% 2 05.10.2026 -
Aníbal Moreno River Plate Active 134 / 130 40% 1 05.10.2026 -
Nicolás Romero Minnesota United FC Active 125 / 132 40% 1 27.09.2026 -
Kevin Álvarez Club America Active 135 / 134 40% 1 23.09.2026 -
Emerson Royal Flamengo Active 136 / 128 40% 1 19.09.2026 -
Chico Kim Mirassol Active 124 / 124 30% 1 / 1m 19.08.2026 -
Jader Santa Clara Active 114 / 117 42% 1 / 1m 12.08.2026 -
Brais Méndez Columbus Crew Active 148 / 143 40% 1 05.08.2026 -
Pablo Rosario Porto Active 138 / 143 40% 1 04.08.2026 -